Time;durP1;ratioP1;P1;durP2;ratioP2;P2;SDS_P1;SDS_P2;PMS_P1;PMS_P2;Temp;Humidity;BMP_temperature;BMP_pressure;BME280_temperature;BME280_humidity;BME280_pressure;Samples;Min_cycle;Max_cycle;Signal;HPM_P1;HPM_P2
2023/09/04 00:00:35;;;;;;;5.82;1.60;;;;;;;17.65;74.12;101771.34;2123117;27;20193;-73
2023/09/04 00:01:39;;;;;;;8.85;1.90;;;;;;;17.65;74.18;101775.97;2113518;27;20028;-73
2023/09/04 00:02:41;;;;;;;5.30;1.65;;;;;;;17.64;74.14;101780.59;2103558;28;20040;-73
2023/09/04 00:03:43;;;;;;;4.65;1.77;;;;;;;17.63;74.39;101784.44;2107028;27;20029;-73
2023/09/04 00:04:51;;;;;;;5.30;1.70;;;;;;;17.61;74.20;101781.19;2123181;27;20035;-74
2023/09/04 00:05:55;;;;;;;5.90;1.70;;;;;;;17.62;74.29;101790.97;2123314;27;20028;-74
2023/09/04 00:06:57;;;;;;;4.82;1.60;;;;;;;17.60;74.48;101779.59;2123151;27;20070;-74
2023/09/04 00:07:59;;;;;;;5.75;1.33;;;;;;;17.61;74.58;101783.91;2114815;27;20127;-74
2023/09/04 00:09:07;;;;;;;7.15;1.58;;;;;;;17.59;74.60;101786.09;2108927;28;20866;-74
2023/09/04 00:10:10;;;;;;;4.20;1.50;;;;;;;17.59;74.75;101784.22;2106725;27;20139;-73
2023/09/04 00:11:15;;;;;;;4.75;1.55;;;;;;;17.57;74.75;101782.91;2122538;27;20030;-74
2023/09/04 00:12:18;;;;;;;4.55;1.50;;;;;;;17.57;74.71;101789.13;2115136;27;20033;-74
2023/09/04 00:13:20;;;;;;;4.70;2.05;;;;;;;17.57;74.95;101793.78;2107689;27;20102;-74
2023/09/04 00:14:27;;;;;;;2.13;1.30;;;;;;;17.55;75.10;101793.25;2115637;27;20841;-72
2023/09/04 00:15:29;;;;;;;5.03;1.58;;;;;;;17.55;75.35;101793.25;2107216;28;20230;-73
2023/09/04 00:16:31;;;;;;;4.28;1.23;;;;;;;17.53;75.37;101790.84;2106513;27;20850;-73
2023/09/04 00:17:33;;;;;;;7.75;1.85;;;;;;;17.52;75.15;101785.69;2114604;27;20074;-73
2023/09/04 00:18:38;;;;;;;15.18;3.50;;;;;;;17.52;75.30;101791.13;2115067;27;20047;-74
2023/09/04 00:19:39;;;;;;;5.15;1.77;;;;;;;17.52;75.50;101783.78;2115025;27;20131;-73
2023/09/04 00:20:41;;;;;;;6.50;1.58;;;;;;;17.53;75.69;101784.59;2114692;27;20028;-73
2023/09/04 00:21:42;;;;;;;4.68;1.80;;;;;;;17.53;75.54;101787.31;2114794;27;20836;-74
2023/09/04 00:22:45;;;;;;;7.13;1.60;;;;;;;17.53;75.78;101784.59;2106408;27;20024;-73
2023/09/04 00:23:47;;;;;;;3.03;1.63;;;;;;;17.54;75.80;101786.22;2130037;27;20023;-74
2023/09/04 00:24:49;;;;;;;3.70;1.50;;;;;;;17.53;75.73;101774.53;2131673;27;20861;-74
2023/09/04 00:25:54;;;;;;;5.78;1.70;;;;;;;17.54;75.80;101772.63;2114546;27;20032;-73
2023/09/04 00:26:58;;;;;;;6.50;1.60;;;;;;;17.53;75.79;101776.44;2114805;27;20016;-73
2023/09/04 00:28:03;;;;;;;3.75;1.60;;;;;;;17.53;76.10;101773.72;2131058;27;20026;-73
2023/09/04 00:29:07;;;;;;;5.88;1.65;;;;;;;17.53;75.83;101782.69;2114727;27;20098;-73
2023/09/04 00:30:11;;;;;;;4.35;1.80;;;;;;;17.53;76.11;101798.19;2106291;28;20878;-73
2023/09/04 00:31:15;;;;;;;5.97;1.83;;;;;;;17.53;75.98;101804.44;2107468;27;20131;-73
2023/09/04 00:32:22;;;;;;;6.18;1.65;;;;;;;17.55;76.16;101804.13;2132232;27;20028;-73
2023/09/04 00:33:29;;;;;;;6.97;1.70;;;;;;;17.54;76.16;101811.47;2131625;27;20142;-73
2023/09/04 00:34:31;;;;;;;3.45;1.27;;;;;;;17.55;76.15;101809.56;2107036;28;20833;-73
2023/09/04 00:35:33;;;;;;;3.95;1.75;;;;;;;17.55;76.24;101815.81;2098170;27;20033;-73
2023/09/04 00:36:39;;;;;;;2.97;1.20;;;;;;;17.55;76.28;101810.38;2115206;27;20024;-73
2023/09/04 00:37:41;;;;;;;3.92;1.70;;;;;;;17.55;76.43;101815.81;2124282;27;20134;-73
2023/09/04 00:38:43;;;;;;;5.15;1.40;;;;;;;17.55;76.51;101821.25;2123301;27;20020;-73
2023/09/04 00:39:45;;;;;;;5.80;1.50;;;;;;;17.56;76.35;101822.88;2106218;28;20024;-73
2023/09/04 00:40:47;;;;;;;4.03;1.65;;;;;;;17.56;76.46;101827.53;2098266;27;20060;-73
2023/09/04 00:41:49;;;;;;;6.57;1.80;;;;;;;17.57;76.55;101834.56;2114712;27;21212;-73
2023/09/04 00:42:52;;;;;;;4.65;1.40;;;;;;;17.57;76.65;101838.09;2114344;28;20042;-73
2023/09/04 00:43:57;;;;;;;7.60;1.50;;;;;;;17.58;76.66;101838.91;2108263;27;20032;-73
2023/09/04 00:45:00;;;;;;;3.85;1.52;;;;;;;17.59;76.64;101832.34;2131950;27;20896;-73
2023/09/04 00:46:03;;;;;;;6.55;1.63;;;;;;;17.59;76.67;101827.75;2114406;28;20040;-74
2023/09/04 00:47:05;;;;;;;2.97;1.40;;;;;;;17.59;76.91;101822.31;2106629;27;20137;-73
2023/09/04 00:48:07;;;;;;;5.55;1.60;;;;;;;17.60;76.84;101814.94;2106053;28;20037;-73
2023/09/04 00:49:10;;;;;;;5.13;1.55;;;;;;;17.59;76.93;101810.59;2098428;27;20039;-73
2023/09/04 00:50:23;;;;;;;2.85;1.50;;;;;;;17.59;76.96;101808.69;2105900;28;20162;-73
2023/09/04 00:51:25;;;;;;;4.00;1.75;;;;;;;17.60;76.90;101812.22;2111085;27;20024;-73
2023/09/04 00:52:28;;;;;;;6.03;1.88;;;;;;;17.59;76.79;101816.03;2114217;27;20032;-73
2023/09/04 00:53:35;;;;;;;8.10;2.78;;;;;;;17.61;76.93;101820.06;2115379;27;20032;-73
2023/09/04 00:54:38;;;;;;;3.50;1.30;;;;;;;17.62;76.84;101820.88;2105970;28;20867;-72
2023/09/04 00:55:44;;;;;;;4.95;1.48;;;;;;;17.61;76.93;101817.34;2098947;28;20033;-74
2023/09/04 00:56:48;;;;;;;7.13;1.50;;;;;;;17.62;76.90;101815.44;2098911;28;20021;-74
2023/09/04 00:57:51;;;;;;;3.60;1.48;;;;;;;17.63;77.06;101814.34;2098645;28;20943;-74
2023/09/04 00:58:54;;;;;;;5.05;1.60;;;;;;;17.62;76.90;101812.72;2098247;28;20025;-74
2023/09/04 00:59:59;;;;;;;5.20;1.83;;;;;;;17.62;76.99;101815.44;2098445;28;20083;-74
2023/09/04 01:01:03;;;;;;;7.82;1.70;;;;;;;17.62;77.12;101810.00;2099182;28;20049;-74
2023/09/04 01:02:08;;;;;;;6.00;1.75;;;;;;;17.61;77.16;101809.19;2098680;28;20062;-74
2023/09/04 01:03:12;;;;;;;6.32;1.48;;;;;;;17.62;76.97;101818.16;2098528;28;20032;-73
2023/09/04 01:04:16;;;;;;;2.75;1.80;;;;;;;17.61;77.02;101814.63;2115970;27;20131;-74
2023/09/04 01:05:25;;;;;;;4.28;1.45;;;;;;;17.63;77.20;101811.63;2122889;27;20026;-74
2023/09/04 01:06:27;;;;;;;7.13;1.58;;;;;;;17.63;77.32;101806.19;2107331;28;20029;-74
2023/09/04 01:07:30;;;;;;;5.43;1.73;;;;;;;17.63;77.41;101811.63;2106180;27;20075;-74
2023/09/04 01:08:34;;;;;;;3.70;1.77;;;;;;;17.63;77.19;101811.63;2110058;27;20182;-74
2023/09/04 01:09:36;;;;;;;6.85;1.40;;;;;;;17.65;77.33;101806.69;2123022;27;20096;-74
2023/09/04 01:10:56;;;;;;;7.55;2.05;;;;;;;17.66;77.16;101796.63;2131254;27;20039;-74
2023/09/04 01:12:23;;;;;;;6.63;1.85;;;;;;;17.65;77.13;101793.09;2123016;27;20131;-74
2023/09/04 01:13:35;;;;;;;2.95;1.35;;;;;;;17.66;77.24;101783.03;2109188;28;20032;-74
2023/09/04 01:14:38;;;;;;;6.68;1.65;;;;;;;17.66;77.21;101781.13;2107509;28;20079;-74
2023/09/04 01:15:40;;;;;;;5.07;1.40;;;;;;;17.66;77.09;101781.13;2106969;27;20187;-74
2023/09/04 01:16:46;;;;;;;3.45;1.63;;;;;;;17.63;77.16;101773.56;2114203;27;20032;-74
2023/09/04 01:17:49;;;;;;;5.70;1.83;;;;;;;17.67;77.22;101784.66;2107803;28;20986;-74
2023/09/04 01:18:52;;;;;;;7.10;1.75;;;;;;;17.67;77.22;101784.66;2099822;28;20132;-74
2023/09/04 01:20:12;;;;;;;3.60;1.40;;;;;;;17.66;77.30;101786.56;2116876;27;20035;-74
2023/09/04 01:21:17;;;;;;;5.47;1.40;;;;;;;17.66;77.24;101794.72;2116030;28;20062;-74
2023/09/04 01:22:19;;;;;;;5.88;1.52;;;;;;;17.66;77.31;101794.72;2100281;28;20749;-74
2023/09/04 01:23:20;;;;;;;8.10;1.83;;;;;;;17.66;77.20;101802.88;2101967;27;20147;-74
2023/09/04 01:24:22;;;;;;;6.20;1.55;;;;;;;17.67;77.27;101804.50;2116142;27;20882;-74
2023/09/04 01:25:52;;;;;;;2.83;1.40;;;;;;;17.68;77.39;101805.28;2116512;27;20032;-73
2023/09/04 01:27:08;;;;;;;5.28;1.70;;;;;;;17.69;77.37;101793.34;2119530;27;20866;-73
2023/09/04 01:28:21;;;;;;;4.72;1.42;;;;;;;17.68;77.45;101795.22;2103258;28;20725;-73
2023/09/04 01:29:50;;;;;;;4.30;1.45;;;;;;;17.68;77.28;101797.94;2095481;28;20276;-73
2023/09/04 01:31:23;;;;;;;4.82;1.50;;;;;;;17.68;77.45;101800.66;2112388;27;20035;-73
2023/09/04 01:32:53;;;;;;;5.13;1.52;;;;;;;17.69;77.50;101804.22;2129068;27;20136;-73
2023/09/04 01:34:26;;;;;;;3.85;1.55;;;;;;;17.68;77.42;101791.69;2128673;27;20096;-73
2023/09/04 01:35:30;;;;;;;5.75;1.60;;;;;;;17.69;77.38;101799.56;2119708;27;20154;-73
2023/09/04 01:36:36;;;;;;;5.93;2.08;;;;;;;17.70;77.55;101803.09;2107999;27;20059;-73
2023/09/04 01:37:39;;;;;;;5.13;1.52;;;;;;;17.69;77.46;101790.63;2125332;27;20035;-72
2023/09/04 01:38:46;;;;;;;4.80;1.65;;;;;;;17.70;77.55;101790.28;2132672;27;20077;-73
2023/09/04 01:39:52;;;;;;;7.50;1.67;;;;;;;17.69;77.53;101785.97;2108395;28;20896;-73
2023/09/04 01:40:54;;;;;;;5.53;1.52;;;;;;;17.71;77.46;101793.81;2092514;28;20056;-73
2023/09/04 01:41:58;;;;;;;4.13;1.55;;;;;;;17.70;77.64;101795.75;2100382;27;20765;-72
2023/09/04 01:43:01;;;;;;;4.57;1.50;;;;;;;17.70;77.52;101803.91;2125032;27;20020;-72
2023/09/04 01:44:03;;;;;;;4.35;1.30;;;;;;;17.71;77.66;101810.13;2115673;28;20028;-72
2023/09/04 01:45:10;;;;;;;4.18;1.60;;;;;;;17.70;77.61;101803.91;2109388;27;20183;-72
2023/09/04 01:46:14;;;;;;;3.95;1.60;;;;;;;17.71;77.73;101818.31;2116544;27;20027;-73
2023/09/04 01:47:17;;;;;;;4.13;1.48;;;;;;;17.70;77.75;101817.50;2124495;27;20035;-72
2023/09/04 01:48:24;;;;;;;6.93;1.45;;;;;;;17.70;77.82;101819.41;2132609;27;20039;-73
2023/09/04 01:49:26;;;;;;;4.72;1.58;;;;;;;17.71;77.72;101818.31;2107996;28;20178;-72
2023/09/04 01:50:30;;;;;;;4.22;1.50;;;;;;;17.71;77.68;101823.75;2108267;27;20066;-73
2023/09/04 01:51:32;;;;;;;5.65;1.88;;;;;;;17.68;77.74;101819.69;2124477;27;20075;-73
2023/09/04 01:52:34;;;;;;;3.53;1.50;;;;;;;17.69;77.96;101828.69;2116964;27;20137;-74
2023/09/04 01:53:35;;;;;;;4.63;1.50;;;;;;;17.69;78.02;101826.78;2107386;28;20032;-74
2023/09/04 01:54:37;;;;;;;4.15;1.40;;;;;;;17.69;78.20;101826.78;2107437;27;20032;-74
2023/09/04 01:55:39;;;;;;;7.32;1.60;;;;;;;17.70;78.01;101828.38;2107490;28;20075;-73
2023/09/04 01:56:42;;;;;;;8.80;2.00;;;;;;;17.70;78.09;101833.81;2099303;28;20025;-73
2023/09/04 01:57:45;;;;;;;4.07;1.70;;;;;;;17.70;78.13;101825.66;2099022;28;20033;-74
2023/09/04 01:58:51;;;;;;;6.53;1.60;;;;;;;17.71;78.15;101832.72;2108603;27;20162;-74
2023/09/04 01:59:52;;;;;;;6.05;1.50;;;;;;;17.71;78.04;101824.53;2099591;28;20875;-74
2023/09/04 02:01:02;;;;;;;4.43;1.38;;;;;;;17.69;78.13;101824.06;2093323;28;20032;-74
2023/09/04 02:02:05;;;;;;;8.30;1.80;;;;;;;17.71;78.04;101823.75;2100776;28;20041;-74
2023/09/04 02:03:09;;;;;;;4.57;1.27;;;;;;;17.72;78.01;101828.09;2099598;28;20029;-74
2023/09/04 02:04:11;;;;;;;7.22;1.50;;;;;;;17.71;78.08;101829.19;2108057;27;20021;-73
2023/09/04 02:05:15;;;;;;;5.20;1.30;;;;;;;17.72;78.05;101825.38;2115172;27;20024;-74
2023/09/04 02:06:17;;;;;;;7.85;1.70;;;;;;;17.70;78.19;101822.13;2124226;27;20031;-73
2023/09/04 02:07:28;;;;;;;6.13;1.77;;;;;;;17.71;78.26;101829.19;2115556;28;20024;-74
2023/09/04 02:08:31;;;;;;;3.17;1.25;;;;;;;17.72;78.25;101831.63;2111874;27;20337;-74
2023/09/04 02:09:33;;;;;;;4.53;1.83;;;;;;;17.72;78.22;101836.25;2106517;28;20123;-74
2023/09/04 02:10:39;;;;;;;6.70;1.73;;;;;;;17.71;78.13;101835.44;2098571;28;20053;-73
2023/09/04 02:11:43;;;;;;;6.30;2.03;;;;;;;17.74;78.24;101840.28;2117692;27;20058;-73
2023/09/04 02:12:50;;;;;;;3.42;1.25;;;;;;;17.74;78.33;101834.03;2123878;27;20026;-73
2023/09/04 02:13:54;;;;;;;3.92;1.50;;;;;;;17.73;78.31;101832.44;2108484;28;20032;-75
2023/09/04 02:14:58;;;;;;;4.47;1.60;;;;;;;17.72;78.08;101839.78;2100307;28;20135;-73
2023/09/04 02:16:02;;;;;;;6.55;1.80;;;;;;;17.72;78.29;101836.25;2115951;27;20062;-73
2023/09/04 02:17:08;;;;;;;5.50;1.50;;;;;;;17.72;78.09;101841.69;2123711;27;20032;-73
2023/09/04 02:18:12;;;;;;;4.78;1.52;;;;;;;17.72;78.21;101837.06;2116050;27;20120;-73
2023/09/04 02:19:15;;;;;;;6.40;1.90;;;;;;;17.72;78.29;101839.78;2107818;28;20805;-73
2023/09/04 02:20:19;;;;;;;6.20;2.15;;;;;;;17.72;78.13;101847.94;2107774;27;20074;-73
2023/09/04 02:21:21;;;;;;;4.60;1.25;;;;;;;17.72;78.24;101847.94;2115924;27;20024;-73
2023/09/04 02:22:22;;;;;;;7.47;2.58;;;;;;;17.73;78.30;101848.75;2115564;28;20963;-73
2023/09/04 02:23:27;;;;;;;7.85;1.42;;;;;;;17.72;78.25;101853.38;2116087;27;20040;-73
2023/09/04 02:24:32;;;;;;;6.57;1.65;;;;;;;17.73;78.30;101862.34;2124474;27;20024;-73
2023/09/04 02:25:33;;;;;;;6.03;1.60;;;;;;;17.72;78.32;101856.09;2115993;27;20044;-74
2023/09/04 02:26:34;;;;;;;5.38;1.60;;;;;;;17.72;78.45;101847.94;2107309;27;20068;-73
2023/09/04 02:27:39;;;;;;;4.82;1.60;;;;;;;17.71;78.33;101840.88;2099091;28;20025;-73
2023/09/04 02:28:44;;;;;;;5.50;1.35;;;;;;;17.71;78.27;101840.88;2108690;27;20865;-73
2023/09/04 02:29:46;;;;;;;3.10;1.42;;;;;;;17.70;78.43;101831.09;2106949;27;20098;-73
2023/09/04 02:30:47;;;;;;;4.13;1.40;;;;;;;17.70;78.33;101833.81;2106622;27;20037;-73
2023/09/04 02:31:52;;;;;;;3.72;1.50;;;;;;;17.70;78.40;101825.66;2107150;27;20118;-73
2023/09/04 02:32:58;;;;;;;6.07;1.80;;;;;;;17.69;78.25;101832.22;2116598;27;20124;-74
2023/09/04 02:34:02;;;;;;;5.50;1.65;;;;;;;17.69;78.22;101829.50;2116200;27;20031;-73
2023/09/04 02:35:09;;;;;;;3.50;1.48;;;;;;;17.69;78.42;101832.22;2116015;27;20047;-73
2023/09/04 02:36:11;;;;;;;4.28;1.58;;;;;;;17.67;78.32;101820.81;2107936;28;20109;-73
2023/09/04 02:37:12;;;;;;;5.97;1.30;;;;;;;17.66;78.56;101824.66;2098665;27;20029;-73
2023/09/04 02:38:14;;;;;;;3.30;1.63;;;;;;;17.66;78.52;101827.38;2107269;27;20017;-73
2023/09/04 02:39:15;;;;;;;4.93;1.48;;;;;;;17.65;78.51;101819.47;2115087;27;20020;-73
2023/09/04 02:40:21;;;;;;;7.65;1.83;;;;;;;17.65;78.47;101819.47;2099176;28;20037;-73
2023/09/04 02:41:23;;;;;;;7.20;1.52;;;;;;;17.66;78.51;101821.13;2108766;27;20027;-73
2023/09/04 02:42:24;;;;;;;4.90;1.60;;;;;;;17.66;78.51;101826.56;2115391;27;20901;-73
2023/09/04 02:43:29;;;;;;;6.03;1.65;;;;;;;17.64;78.43;101834.19;2116081;27;20039;-73
2023/09/04 02:44:33;;;;;;;7.38;1.77;;;;;;;17.63;78.38;101827.94;2107598;28;20979;-73
2023/09/04 02:45:34;;;;;;;5.43;1.60;;;;;;;17.63;78.56;101827.94;2108151;27;20024;-73
2023/09/04 02:46:40;;;;;;;7.25;2.13;;;;;;;17.61;78.63;101830.94;2115693;27;20890;-73
2023/09/04 02:47:42;;;;;;;7.75;1.80;;;;;;;17.62;78.51;101826.31;2107104;27;20016;-73
2023/09/04 02:48:46;;;;;;;4.30;1.80;;;;;;;17.62;78.67;101826.31;2115433;27;20099;-73
2023/09/04 02:49:48;;;;;;;5.97;1.83;;;;;;;17.60;78.80;101823.91;2124004;27;20028;-73
2023/09/04 02:50:59;;;;;;;6.05;1.60;;;;;;;17.60;78.61;101828.53;2107365;28;20028;-73
2023/09/04 02:52:05;;;;;;;3.63;1.80;;;;;;;17.57;78.83;101819.06;2108414;27;20036;-73
2023/09/04 02:53:08;;;;;;;6.78;2.20;;;;;;;17.59;78.74;101819.56;2115955;27;20132;-73
2023/09/04 02:54:14;;;;;;;4.65;1.65;;;;;;;17.60;78.72;101817.66;2107559;28;20036;-73
2023/09/04 02:55:19;;;;;;;8.02;1.63;;;;;;;17.57;78.86;101808.19;2108403;27;20052;-74
2023/09/04 02:56:22;;;;;;;6.88;1.65;;;;;;;17.60;78.85;101812.22;2123715;27;20027;-74
2023/09/04 02:57:23;;;;;;;7.18;1.98;;;;;;;17.59;78.91;101810.59;2107137;28;20990;-73
2023/09/04 02:58:26;;;;;;;8.60;2.55;;;;;;;17.59;78.91;101805.16;2098736;28;20029;-74
2023/09/04 02:59:32;;;;;;;5.45;1.70;;;;;;;17.57;78.77;101804.66;2107156;27;20016;-73
2023/09/04 03:00:40;;;;;;;3.75;1.60;;;;;;;17.55;78.99;101804.13;2116293;27;20038;-74
2023/09/04 03:01:42;;;;;;;7.55;1.60;;;;;;;17.55;79.05;101810.38;2115436;27;20064;-73
2023/09/04 03:02:46;;;;;;;7.00;1.55;;;;;;;17.55;78.94;101799.50;2107057;28;20024;-74
2023/09/04 03:03:54;;;;;;;8.80;1.60;;;;;;;17.55;79.12;101802.22;2115720;27;20050;-74
2023/09/04 03:04:59;;;;;;;4.15;1.63;;;;;;;17.54;79.18;101805.25;2123807;27;20848;-74
2023/09/04 03:06:11;;;;;;;3.67;1.67;;;;;;;17.53;79.05;101804.44;2098586;28;20080;-74
2023/09/04 03:07:17;;;;;;;4.90;1.73;;;;;;;17.53;79.18;101803.63;2102659;28;20033;-73
2023/09/04 03:08:21;;;;;;;4.43;1.50;;;;;;;17.51;79.26;101811.28;2100473;28;20040;-73
2023/09/04 03:09:26;;;;;;;3.38;1.60;;;;;;;17.50;79.37;101801.50;2099057;28;20063;-73
2023/09/04 03:10:30;;;;;;;5.97;1.83;;;;;;;17.49;79.47;101800.66;2106675;28;20121;-73
2023/09/04 03:11:35;;;;;;;5.05;2.03;;;;;;;17.50;79.40;101804.22;2107162;28;20032;-74
2023/09/04 03:12:40;;;;;;;5.15;1.90;;;;;;;17.49;79.44;101805.31;2115562;27;20102;-73
2023/09/04 03:13:41;;;;;;;6.47;2.08;;;;;;;17.49;79.41;101797.16;2107130;28;20032;-73
2023/09/04 03:14:43;;;;;;;6.57;2.28;;;;;;;17.50;79.31;101798.78;2106876;27;20032;-73
2023/09/04 03:15:47;;;;;;;7.00;1.70;;;;;;;17.47;79.49;101800.19;2098865;28;20086;-74
2023/09/04 03:16:51;;;;;;;4.97;1.48;;;;;;;17.51;79.31;101800.41;2090381;28;20107;-73
2023/09/04 03:17:52;;;;;;;6.03;1.60;;;;;;;17.50;79.43;101805.03;2107125;28;20982;-74
2023/09/04 03:18:55;;;;;;;5.65;1.27;;;;;;;17.50;79.48;101802.31;2106953;27;20170;-73
2023/09/04 03:19:58;;;;;;;3.72;1.60;;;;;;;17.52;79.41;101804.72;2107299;28;20775;-73
2023/09/04 03:21:01;;;;;;;3.28;1.33;;;;;;;17.51;79.35;101790.31;2098625;28;20079;-74
2023/09/04 03:22:04;;;;;;;4.88;1.88;;;;;;;17.52;79.19;101799.28;2107033;28;20035;-73
2023/09/04 03:23:07;;;;;;;3.67;1.70;;;;;;;17.50;79.24;101799.59;2098566;28;20029;-74
2023/09/04 03:24:08;;;;;;;5.80;1.75;;;;;;;17.50;79.21;101802.31;2098810;28;20151;-73
2023/09/04 03:25:15;;;;;;;6.00;2.10;;;;;;;17.50;79.27;101817.81;2108477;27;20961;-74
2023/09/04 03:26:20;;;;;;;6.32;1.80;;;;;;;17.49;79.32;101816.19;2125049;27;20100;-74
2023/09/04 03:27:27;;;;;;;7.55;1.63;;;;;;;17.49;79.06;101818.91;2132173;27;20027;-74
2023/09/04 03:28:29;;;;;;;5.45;1.60;;;;;;;17.48;79.34;101814.56;2115858;27;20165;-74
2023/09/04 03:29:33;;;;;;;5.63;1.50;;;;;;;17.48;79.37;101823.53;2115133;27;20042;-73
2023/09/04 03:30:36;;;;;;;6.50;2.85;;;;;;;17.46;79.35;101823.00;2123945;27;20054;-73
2023/09/04 03:31:43;;;;;;;5.80;1.40;;;;;;;17.47;79.36;101823.84;2114708;28;21045;-73
2023/09/04 03:32:49;;;;;;;4.35;1.58;;;;;;;17.48;79.21;101820.00;2108750;27;20143;-74
2023/09/04 03:33:53;;;;;;;4.07;1.67;;;;;;;17.47;79.36;101821.94;2107048;27;20129;-74
2023/09/04 03:34:55;;;;;;;4.35;1.50;;;;;;;17.46;79.14;101823.00;2107486;27;20145;-73
2023/09/04 03:36:00;;;;;;;4.85;1.67;;;;;;;17.47;79.22;101821.94;2116641;27;20027;-73
2023/09/04 03:37:06;;;;;;;7.65;1.98;;;;;;;17.48;79.24;101828.97;2115248;27;20040;-74
2023/09/04 03:38:10;;;;;;;3.75;1.60;;;;;;;17.50;79.10;101820.53;2116404;27;20024;-74
2023/09/04 03:39:11;;;;;;;4.72;1.45;;;;;;;17.47;79.20;101816.50;2107251;27;20147;-74
2023/09/04 03:40:25;;;;;;;5.47;1.50;;;;;;;17.48;79.02;101820.00;2097731;28;20040;-73
2023/09/04 03:41:27;;;;;;;6.13;2.03;;;;;;;17.48;79.16;101811.84;2111750;27;20041;-73
2023/09/04 03:42:31;;;;;;;4.70;1.58;;;;;;;17.49;79.27;101810.75;2115293;27;20036;-73
2023/09/04 03:43:34;;;;;;;5.63;1.92;;;;;;;17.48;79.18;101809.94;2115804;27;20028;-73
2023/09/04 03:44:36;;;;;;;4.40;1.70;;;;;;;17.49;79.00;101816.19;2115396;27;20028;-74
2023/09/04 03:45:40;;;;;;;5.28;1.60;;;;;;;17.48;79.23;101809.94;2115586;27;20027;-73
2023/09/04 03:46:45;;;;;;;5.85;1.63;;;;;;;17.48;79.11;101817.28;2123310;27;20020;-74
2023/09/04 03:47:51;;;;;;;5.00;1.65;;;;;;;17.49;79.23;101819.72;2115748;27;20841;-73
2023/09/04 03:48:53;;;;;;;5.18;1.77;;;;;;;17.50;79.21;101823.25;2106827;28;20150;-73
2023/09/04 03:49:55;;;;;;;4.43;1.58;;;;;;;17.50;79.17;101817.81;2106794;27;20799;-73
2023/09/04 03:51:02;;;;;;;7.00;1.67;;;;;;;17.50;79.16;101806.94;2131960;27;20021;-73
2023/09/04 03:52:09;;;;;;;4.00;1.55;;;;;;;17.48;79.25;101814.56;2128144;27;20031;-73
2023/09/04 03:53:11;;;;;;;4.32;1.75;;;;;;;17.48;79.23;101807.22;2106452;28;20021;-74
2023/09/04 03:54:12;;;;;;;6.78;1.83;;;;;;;17.49;79.14;101803.41;2107002;27;20029;-74
2023/09/04 03:55:15;;;;;;;4.47;1.77;;;;;;;17.50;79.22;101804.22;2123704;27;20790;-74
2023/09/04 03:56:16;;;;;;;4.28;1.77;;;;;;;17.48;79.06;101807.22;2123452;27;20023;-74
2023/09/04 03:57:26;;;;;;;6.32;1.50;;;;;;;17.49;78.99;101808.03;2106448;28;20044;-74
2023/09/04 03:58:30;;;;;;;4.45;1.42;;;;;;;17.50;79.00;101806.94;2083900;28;20050;-74
2023/09/04 03:59:35;;;;;;;6.72;2.15;;;;;;;17.50;79.14;101812.38;2098955;28;20051;-73
2023/09/04 04:00:37;;;;;;;3.13;1.60;;;;;;;17.51;79.01;101805.84;2107106;27;20087;-73
2023/09/04 04:01:39;;;;;;;6.80;2.03;;;;;;;17.52;79.13;101810.16;2098248;28;20079;-73
2023/09/04 04:02:47;;;;;;;5.82;1.85;;;;;;;17.52;79.06;101804.72;2091631;28;20036;-74
2023/09/04 04:03:53;;;;;;;10.95;2.08;;;;;;;17.51;78.96;101808.56;2107420;27;20024;-73
2023/09/04 04:04:55;;;;;;;3.97;1.55;;;;;;;17.51;79.02;101805.84;2115042;27;20040;-73
2023/09/04 04:05:56;;;;;;;3.75;1.55;;;;;;;17.51;78.94;101808.56;2106483;28;20040;-73
2023/09/04 04:06:58;;;;;;;3.85;1.67;;;;;;;17.51;78.93;101814.00;2098102;28;20033;-73
2023/09/04 04:08:01;;;;;;;4.80;1.60;;;;;;;17.51;78.88;101816.72;2089911;28;20045;-73
2023/09/04 04:09:06;;;;;;;9.02;1.67;;;;;;;17.48;78.97;101814.56;2122506;27;20020;-74
2023/09/04 04:10:11;;;;;;;4.45;1.50;;;;;;;17.50;78.79;101812.38;2115210;27;20031;-74
2023/09/04 04:11:12;;;;;;;5.53;1.58;;;;;;;17.48;78.97;101809.94;2106721;28;20127;-74
2023/09/04 04:12:17;;;;;;;5.80;1.80;;;;;;;17.51;79.11;101819.44;2106214;28;20028;-74
2023/09/04 04:13:19;;;;;;;4.10;1.83;;;;;;;17.51;79.04;101816.72;2106448;28;20033;-74
2023/09/04 04:14:28;;;;;;;5.35;2.00;;;;;;;17.53;79.13;101826.19;2099662;28;20060;-74
2023/09/04 04:15:30;;;;;;;4.70;1.52;;;;;;;17.53;78.98;101828.91;2108211;27;20135;-74
2023/09/04 04:16:36;;;;;;;3.60;1.70;;;;;;;17.54;79.18;101835.97;2123480;27;21032;-74
2023/09/04 04:17:40;;;;;;;4.43;1.80;;;;;;;17.55;79.04;101842.19;2106052;28;20067;-74
2023/09/04 04:18:42;;;;;;;7.75;2.10;;;;;;;17.56;79.10;101846.56;2098803;28;20041;-74
2023/09/04 04:19:47;;;;;;;6.15;1.85;;;;;;;17.56;78.97;101838.41;2106795;27;20109;-74
2023/09/04 04:20:48;;;;;;;2.80;1.50;;;;;;;17.56;78.99;101843.84;2115662;27;20058;-74
2023/09/04 04:21:55;;;;;;;4.43;1.55;;;;;;;17.57;79.01;101851.69;2115302;27;20954;-74
2023/09/04 04:23:00;;;;;;;5.50;1.92;;;;;;;17.59;nan;101851.38;2115144;27;20094;-74
2023/09/04 04:24:03;;;;;;;3.67;1.83;;;;;;;17.57;79.04;101851.69;2106628;28;20126;-74
2023/09/04 04:25:07;;;;;;;6.50;1.92;;;;;;;17.58;79.11;101839.69;2107626;27;21315;-74
2023/09/04 04:26:10;;;;;;;6.95;1.70;;;;;;;17.56;79.26;101838.41;2115181;27;20885;-73
2023/09/04 04:27:12;;;;;;;3.75;1.50;;;;;;;17.59;79.07;101845.94;2123359;27;20093;-74
2023/09/04 04:28:14;;;;;;;7.50;1.75;;;;;;;17.60;79.08;101853.00;2132043;27;20098;-74
2023/09/04 04:29:19;;;;;;;3.83;1.80;;;;;;;17.61;79.14;101854.63;2132131;27;20027;-73
2023/09/04 04:30:20;;;;;;;5.30;2.17;;;;;;;17.59;78.99;101849.50;2123674;27;20027;-73
2023/09/04 04:31:24;;;;;;;6.22;1.77;;;;;;;17.60;79.20;101856.53;2115257;27;20028;-73
2023/09/04 04:32:27;;;;;;;5.68;1.50;;;;;;;17.62;79.16;101858.94;2123730;27;20078;-71
2023/09/04 04:33:31;;;;;;;3.47;1.80;;;;;;;17.63;79.27;101866.03;2123841;27;20035;-73
2023/09/04 04:34:35;;;;;;;5.43;2.10;;;;;;;17.63;79.04;101860.59;2115210;27;20036;-73
2023/09/04 04:35:37;;;;;;;4.85;2.20;;;;;;;17.63;79.49;101859.78;2124156;27;20024;-72
2023/09/04 04:36:39;;;;;;;6.43;2.00;;;;;;;17.63;79.58;101855.16;2114641;27;20178;-74
2023/09/04 04:37:41;;;;;;;6.38;1.65;;;;;;;17.66;79.46;101861.91;2106866;27;20029;-72
2023/09/04 04:38:43;;;;;;;7.93;1.73;;;;;;;17.66;79.30;101859.19;2105949;27;20253;-73
2023/09/04 04:39:45;;;;;;;7.43;2.25;;;;;;;17.66;79.30;101853.75;2106119;28;20035;-73
2023/09/04 04:40:50;;;;;;;5.07;2.03;;;;;;;17.68;79.36;101857.78;2094149;28;20049;-72
2023/09/04 04:41:53;;;;;;;5.88;2.42;;;;;;;17.67;79.33;101853.44;2099043;28;20881;-73
2023/09/04 04:42:56;;;;;;;5.53;1.73;;;;;;;17.69;79.46;101858.59;2098167;28;20830;-73
2023/09/04 04:44:01;;;;;;;2.92;1.58;;;;;;;17.69;79.25;101864.84;2098655;28;20147;-73
2023/09/04 04:45:04;;;;;;;5.35;1.70;;;;;;;17.69;79.24;101867.56;2098639;28;20021;-73
2023/09/04 04:46:09;;;;;;;7.75;1.90;;;;;;;17.71;79.34;101861.81;2098268;28;20160;-73
2023/09/04 04:47:10;;;;;;;8.10;1.83;;;;;;;17.70;79.33;101869.19;2107020;27;20029;-73
2023/09/04 04:48:12;;;;;;;7.63;2.05;;;;;;;17.71;79.43;101864.53;2114209;27;20980;-73
2023/09/04 04:49:23;;;;;;;5.63;1.77;;;;;;;17.70;79.50;101862.94;2105520;28;20818;-73
2023/09/04 04:50:29;;;;;;;5.03;1.70;;;;;;;17.70;79.39;101854.78;2106662;28;20033;-72
2023/09/04 04:51:30;;;;;;;5.00;1.75;;;;;;;17.69;79.48;101859.41;2105923;27;20864;-72
2023/09/04 04:52:35;;;;;;;4.45;1.63;;;;;;;17.70;79.53;101861.03;2114594;27;20121;-71
2023/09/04 04:53:38;;;;;;;3.80;1.58;;;;;;;17.73;79.56;101859.63;2107254;28;20197;-71
2023/09/04 04:54:44;;;;;;;3.45;1.45;;;;;;;17.73;79.63;101867.78;2108093;27;20025;-70
2023/09/04 04:55:45;;;;;;;5.57;1.67;;;;;;;17.72;79.56;101869.72;2098517;28;20041;-72
2023/09/04 04:56:49;;;;;;;7.65;2.22;;;;;;;17.74;79.56;101870.19;2090766;28;20077;-71
2023/09/04 04:57:53;;;;;;;3.90;2.03;;;;;;;17.72;79.56;101858.03;2099065;28;20047;-70
2023/09/04 04:58:54;;;;;;;6.10;2.10;;;;;;;17.73;79.73;101871.31;2107511;27;20140;-72
2023/09/04 05:00:01;;;;;;;4.70;1.70;;;;;;;17.73;79.56;101871.31;2106642;28;20039;-71